sensor_id;sensor_type;location;lat;lon;timestamp;P1;durP1;ratioP1;P2;durP2;ratioP2
47812;SDS011;34221;45.296;9.516;2022-07-11T00:00:04;7.88;;;3.08;;
47812;SDS011;34221;45.296;9.516;2022-07-11T00:00:29;7.50;;;2.92;;
47812;SDS011;34221;45.296;9.516;2022-07-11T00:00:44;6.90;;;2.90;;
47812;SDS011;34221;45.296;9.516;2022-07-11T00:00:59;6.35;;;2.80;;
47812;SDS011;34221;45.296;9.516;2022-07-11T00:01:14;6.35;;;2.60;;
47812;SDS011;34221;45.296;9.516;2022-07-11T00:01:29;5.32;;;2.50;;
47812;SDS011;34221;45.296;9.516;2022-07-11T00:01:45;6.40;;;2.70;;
47812;SDS011;34221;45.296;9.516;2022-07-11T00:02:00;6.70;;;2.88;;
47812;SDS011;34221;45.296;9.516;2022-07-11T00:02:16;4.97;;;2.78;;
47812;SDS011;34221;45.296;9.516;2022-07-11T00:02:31;6.20;;;2.83;;
47812;SDS011;34221;45.296;9.516;2022-07-11T00:02:46;7.05;;;2.70;;
47812;SDS011;34221;45.296;9.516;2022-07-11T00:03:01;5.68;;;2.63;;
47812;SDS011;34221;45.296;9.516;2022-07-11T00:03:16;5.22;;;2.75;;
47812;SDS011;34221;45.296;9.516;2022-07-11T00:03:31;7.53;;;2.85;;
47812;SDS011;34221;45.296;9.516;2022-07-11T00:03:45;8.15;;;2.83;;
47812;SDS011;34221;45.296;9.516;2022-07-11T00:04:00;8.65;;;2.65;;
47812;SDS011;34221;45.296;9.516;2022-07-11T00:04:16;7.57;;;2.42;;
47812;SDS011;34221;45.296;9.516;2022-07-11T00:04:31;4.70;;;2.42;;
47812;SDS011;34221;45.296;9.516;2022-07-11T00:04:47;4.63;;;2.70;;
47812;SDS011;34221;45.296;9.516;2022-07-11T00:05:03;5.45;;;2.80;;
47812;SDS011;34221;45.296;9.516;2022-07-11T00:05:19;6.13;;;2.70;;
47812;SDS011;34221;45.296;9.516;2022-07-11T00:05:34;6.15;;;2.70;;
47812;SDS011;34221;45.296;9.516;2022-07-11T00:05:49;5.68;;;2.78;;
47812;SDS011;34221;45.296;9.516;2022-07-11T00:06:04;5.60;;;2.70;;
47812;SDS011;34221;45.296;9.516;2022-07-11T00:06:19;5.63;;;2.60;;
47812;SDS011;34221;45.296;9.516;2022-07-11T00:06:34;5.17;;;2.50;;
47812;SDS011;34221;45.296;9.516;2022-07-11T00:06:49;5.47;;;2.65;;
47812;SDS011;34221;45.296;9.516;2022-07-11T00:07:04;5.10;;;2.70;;
47812;SDS011;34221;45.296;9.516;2022-07-11T00:07:20;5.25;;;2.85;;
47812;SDS011;34221;45.296;9.516;2022-07-11T00:07:35;5.47;;;2.90;;
47812;SDS011;34221;45.296;9.516;2022-07-11T00:07:51;5.50;;;2.67;;
47812;SDS011;34221;45.296;9.516;2022-07-11T00:08:06;5.93;;;2.70;;
47812;SDS011;34221;45.296;9.516;2022-07-11T00:08:21;5.32;;;2.60;;
47812;SDS011;34221;45.296;9.516;2022-07-11T00:08:36;5.33;;;2.57;;
47812;SDS011;34221;45.296;9.516;2022-07-11T00:08:51;5.20;;;2.80;;
47812;SDS011;34221;45.296;9.516;2022-07-11T00:09:06;5.45;;;3.05;;
47812;SDS011;34221;45.296;9.516;2022-07-11T00:09:21;5.80;;;3.15;;
47812;SDS011;34221;45.296;9.516;2022-07-11T00:09:36;6.75;;;3.10;;
47812;SDS011;34221;45.296;9.516;2022-07-11T00:09:51;6.72;;;2.88;;
47812;SDS011;34221;45.296;9.516;2022-07-11T00:10:06;5.25;;;2.72;;
47812;SDS011;34221;45.296;9.516;2022-07-11T00:10:21;6.07;;;2.65;;
47812;SDS011;34221;45.296;9.516;2022-07-11T00:10:36;6.72;;;2.55;;
47812;SDS011;34221;45.296;9.516;2022-07-11T00:10:51;5.53;;;2.58;;
47812;SDS011;34221;45.296;9.516;2022-07-11T00:11:07;6.38;;;2.70;;
47812;SDS011;34221;45.296;9.516;2022-07-11T00:11:22;6.15;;;2.60;;
47812;SDS011;34221;45.296;9.516;2022-07-11T00:11:37;5.43;;;2.53;;
47812;SDS011;34221;45.296;9.516;2022-07-11T00:11:52;5.60;;;2.75;;
47812;SDS011;34221;45.296;9.516;2022-07-11T00:12:08;6.05;;;2.90;;
47812;SDS011;34221;45.296;9.516;2022-07-11T00:12:24;7.63;;;2.90;;
47812;SDS011;34221;45.296;9.516;2022-07-11T00:12:42;6.68;;;2.80;;
47812;SDS011;34221;45.296;9.516;2022-07-11T00:12:57;5.05;;;2.60;;
47812;SDS011;34221;45.296;9.516;2022-07-11T00:13:12;4.38;;;2.50;;
47812;SDS011;34221;45.296;9.516;2022-07-11T00:13:27;4.88;;;2.60;;
47812;SDS011;34221;45.296;9.516;2022-07-11T00:13:42;6.72;;;2.70;;
47812;SDS011;34221;45.296;9.516;2022-07-11T00:13:57;7.20;;;2.65;;
47812;SDS011;34221;45.296;9.516;2022-07-11T00:14:13;5.60;;;2.80;;
47812;SDS011;34221;45.296;9.516;2022-07-11T00:14:28;4.53;;;2.72;;
47812;SDS011;34221;45.296;9.516;2022-07-11T00:14:43;4.72;;;2.70;;
47812;SDS011;34221;45.296;9.516;2022-07-11T00:14:58;6.15;;;2.90;;
47812;SDS011;34221;45.296;9.516;2022-07-11T00:15:13;7.28;;;3.13;;
47812;SDS011;34221;45.296;9.516;2022-07-11T00:15:28;7.80;;;3.03;;
47812;SDS011;34221;45.296;9.516;2022-07-11T00:15:43;7.07;;;2.55;;
47812;SDS011;34221;45.296;9.516;2022-07-11T00:15:58;5.90;;;2.45;;
47812;SDS011;34221;45.296;9.516;2022-07-11T00:16:13;5.30;;;2.50;;
47812;SDS011;34221;45.296;9.516;2022-07-11T00:16:28;5.25;;;2.47;;
47812;SDS011;34221;45.296;9.516;2022-07-11T00:16:43;5.95;;;2.60;;
47812;SDS011;34221;45.296;9.516;2022-07-11T00:16:58;6.38;;;2.58;;
47812;SDS011;34221;45.296;9.516;2022-07-11T00:17:13;6.18;;;2.60;;
47812;SDS011;34221;45.296;9.516;2022-07-11T00:17:28;5.95;;;2.67;;
47812;SDS011;34221;45.296;9.516;2022-07-11T00:17:43;5.47;;;2.50;;
47812;SDS011;34221;45.296;9.516;2022-07-11T00:17:58;6.05;;;2.50;;
47812;SDS011;34221;45.296;9.516;2022-07-11T00:18:13;8.25;;;2.67;;
47812;SDS011;34221;45.296;9.516;2022-07-11T00:18:28;9.07;;;2.88;;
47812;SDS011;34221;45.296;9.516;2022-07-11T00:18:43;7.82;;;3.03;;
47812;SDS011;34221;45.296;9.516;2022-07-11T00:18:59;6.35;;;3.00;;
47812;SDS011;34221;45.296;9.516;2022-07-11T00:19:14;5.68;;;2.80;;
47812;SDS011;34221;45.296;9.516;2022-07-11T00:19:29;6.97;;;2.78;;
47812;SDS011;34221;45.296;9.516;2022-07-11T00:19:44;7.85;;;2.67;;
47812;SDS011;34221;45.296;9.516;2022-07-11T00:20:00;5.82;;;2.42;;
47812;SDS011;34221;45.296;9.516;2022-07-11T00:20:15;5.13;;;2.47;;
47812;SDS011;34221;45.296;9.516;2022-07-11T00:20:30;6.65;;;2.80;;
47812;SDS011;34221;45.296;9.516;2022-07-11T00:20:45;7.00;;;2.92;;
47812;SDS011;34221;45.296;9.516;2022-07-11T00:21:00;4.95;;;2.78;;
47812;SDS011;34221;45.296;9.516;2022-07-11T00:21:15;4.88;;;2.80;;
47812;SDS011;34221;45.296;9.516;2022-07-11T00:21:30;5.53;;;2.65;;
47812;SDS011;34221;45.296;9.516;2022-07-11T00:21:48;4.95;;;2.25;;
47812;SDS011;34221;45.296;9.516;2022-07-11T00:22:05;5.28;;;2.22;;
47812;SDS011;34221;45.296;9.516;2022-07-11T00:22:20;6.00;;;2.50;;
47812;SDS011;34221;45.296;9.516;2022-07-11T00:22:35;6.10;;;2.60;;
47812;SDS011;34221;45.296;9.516;2022-07-11T00:22:50;6.03;;;2.53;;
47812;SDS011;34221;45.296;9.516;2022-07-11T00:23:06;5.32;;;2.50;;
47812;SDS011;34221;45.296;9.516;2022-07-11T00:23:21;4.85;;;2.47;;
47812;SDS011;34221;45.296;9.516;2022-07-11T00:23:36;5.00;;;2.75;;
47812;SDS011;34221;45.296;9.516;2022-07-11T00:23:51;5.40;;;2.65;;
47812;SDS011;34221;45.296;9.516;2022-07-11T00:24:06;6.03;;;2.65;;
47812;SDS011;34221;45.296;9.516;2022-07-11T00:24:22;8.52;;;2.90;;
47812;SDS011;34221;45.296;9.516;2022-07-11T00:24:39;7.70;;;2.53;;
47812;SDS011;34221;45.296;9.516;2022-07-11T00:24:54;5.97;;;2.57;;
47812;SDS011;34221;45.296;9.516;2022-07-11T00:25:09;5.57;;;2.63;;
47812;SDS011;34221;45.296;9.516;2022-07-11T00:25:23;5.32;;;2.70;;
47812;SDS011;34221;45.296;9.516;2022-07-11T00:25:38;5.28;;;2.63;;
47812;SDS011;34221;45.296;9.516;2022-07-11T00:25:54;4.93;;;2.65;;
47812;SDS011;34221;45.296;9.516;2022-07-11T00:26:09;4.78;;;2.60;;
47812;SDS011;34221;45.296;9.516;2022-07-11T00:26:24;6.88;;;2.70;;
47812;SDS011;34221;45.296;9.516;2022-07-11T00:26:39;8.07;;;3.00;;
47812;SDS011;34221;45.296;9.516;2022-07-11T00:26:54;7.18;;;3.08;;
47812;SDS011;34221;45.296;9.516;2022-07-11T00:27:09;6.53;;;2.90;;
47812;SDS011;34221;45.296;9.516;2022-07-11T00:27:25;7.47;;;2.75;;
47812;SDS011;34221;45.296;9.516;2022-07-11T00:27:40;6.73;;;2.50;;
47812;SDS011;34221;45.296;9.516;2022-07-11T00:27:55;7.80;;;2.53;;
47812;SDS011;34221;45.296;9.516;2022-07-11T00:28:10;11.73;;;2.80;;
47812;SDS011;34221;45.296;9.516;2022-07-11T00:28:25;10.17;;;2.77;;
47812;SDS011;34221;45.296;9.516;2022-07-11T00:28:40;6.13;;;2.50;;
47812;SDS011;34221;45.296;9.516;2022-07-11T00:28:55;5.03;;;2.20;;
47812;SDS011;34221;45.296;9.516;2022-07-11T00:29:10;5.22;;;2.50;;
47812;SDS011;34221;45.296;9.516;2022-07-11T00:29:26;8.18;;;2.95;;
47812;SDS011;34221;45.296;9.516;2022-07-11T00:29:42;7.85;;;2.90;;
47812;SDS011;34221;45.296;9.516;2022-07-11T00:29:57;4.70;;;2.65;;
47812;SDS011;34221;45.296;9.516;2022-07-11T00:30:12;6.03;;;2.90;;
47812;SDS011;34221;45.296;9.516;2022-07-11T00:30:27;6.57;;;2.95;;
47812;SDS011;34221;45.296;9.516;2022-07-11T00:30:42;4.82;;;2.75;;
47812;SDS011;34221;45.296;9.516;2022-07-11T00:30:57;4.78;;;2.78;;
47812;SDS011;34221;45.296;9.516;2022-07-11T00:31:12;5.80;;;2.72;;
47812;SDS011;34221;45.296;9.516;2022-07-11T00:31:26;6.25;;;2.80;;
47812;SDS011;34221;45.296;9.516;2022-07-11T00:31:42;5.45;;;2.80;;
47812;SDS011;34221;45.296;9.516;2022-07-11T00:31:58;9.02;;;2.70;;
47812;SDS011;34221;45.296;9.516;2022-07-11T00:32:13;11.85;;;2.88;;
47812;SDS011;34221;45.296;9.516;2022-07-11T00:32:28;9.50;;;2.80;;
47812;SDS011;34221;45.296;9.516;2022-07-11T00:32:43;9.13;;;2.83;;
47812;SDS011;34221;45.296;9.516;2022-07-11T00:32:58;6.15;;;2.92;;
47812;SDS011;34221;45.296;9.516;2022-07-11T00:33:13;5.15;;;2.72;;
47812;SDS011;34221;45.296;9.516;2022-07-11T00:33:28;5.20;;;2.60;;
47812;SDS011;34221;45.296;9.516;2022-07-11T00:33:43;6.72;;;2.58;;
47812;SDS011;34221;45.296;9.516;2022-07-11T00:33:58;7.05;;;2.63;;
47812;SDS011;34221;45.296;9.516;2022-07-11T00:34:13;6.25;;;2.75;;
47812;SDS011;34221;45.296;9.516;2022-07-11T00:34:30;5.72;;;2.63;;
47812;SDS011;34221;45.296;9.516;2022-07-11T00:34:45;4.85;;;2.70;;
47812;SDS011;34221;45.296;9.516;2022-07-11T00:35:00;4.97;;;2.70;;
47812;SDS011;34221;45.296;9.516;2022-07-11T00:35:35;7.75;;;2.60;;
47812;SDS011;34221;45.296;9.516;2022-07-11T00:35:50;7.70;;;2.90;;
47812;SDS011;34221;45.296;9.516;2022-07-11T00:36:05;7.95;;;2.88;;
47812;SDS011;34221;45.296;9.516;2022-07-11T00:36:20;6.20;;;2.70;;
47812;SDS011;34221;45.296;9.516;2022-07-11T00:36:35;6.57;;;2.80;;
47812;SDS011;34221;45.296;9.516;2022-07-11T00:36:50;7.10;;;2.83;;
47812;SDS011;34221;45.296;9.516;2022-07-11T00:37:06;5.97;;;2.90;;
47812;SDS011;34221;45.296;9.516;2022-07-11T00:37:20;5.87;;;2.73;;
47812;SDS011;34221;45.296;9.516;2022-07-11T00:37:35;11.63;;;2.75;;
47812;SDS011;34221;45.296;9.516;2022-07-11T00:37:50;12.63;;;2.83;;
47812;SDS011;34221;45.296;9.516;2022-07-11T00:38:05;7.43;;;3.10;;
47812;SDS011;34221;45.296;9.516;2022-07-11T00:38:20;10.93;;;3.13;;
47812;SDS011;34221;45.296;9.516;2022-07-11T00:38:35;10.65;;;2.72;;
47812;SDS011;34221;45.296;9.516;2022-07-11T00:38:50;7.40;;;2.85;;
47812;SDS011;34221;45.296;9.516;2022-07-11T00:39:05;7.08;;;2.66;;
47812;SDS011;34221;45.296;9.516;2022-07-11T00:39:20;6.15;;;2.22;;
47812;SDS011;34221;45.296;9.516;2022-07-11T00:39:35;6.10;;;2.42;;
47812;SDS011;34221;45.296;9.516;2022-07-11T00:39:50;7.13;;;2.75;;
47812;SDS011;34221;45.296;9.516;2022-07-11T00:40:06;8.07;;;2.90;;
47812;SDS011;34221;45.296;9.516;2022-07-11T00:40:21;7.90;;;2.70;;
47812;SDS011;34221;45.296;9.516;2022-07-11T00:40:36;7.80;;;2.70;;
47812;SDS011;34221;45.296;9.516;2022-07-11T00:40:51;7.32;;;2.85;;
47812;SDS011;34221;45.296;9.516;2022-07-11T00:41:06;6.75;;;2.70;;
47812;SDS011;34221;45.296;9.516;2022-07-11T00:41:21;7.97;;;2.85;;
47812;SDS011;34221;45.296;9.516;2022-07-11T00:41:36;7.70;;;2.90;;
47812;SDS011;34221;45.296;9.516;2022-07-11T00:41:51;5.47;;;2.70;;
47812;SDS011;34221;45.296;9.516;2022-07-11T00:42:06;4.00;;;2.45;;
47812;SDS011;34221;45.296;9.516;2022-07-11T00:42:21;3.80;;;2.20;;
47812;SDS011;34221;45.296;9.516;2022-07-11T00:42:36;4.73;;;2.33;;
47812;SDS011;34221;45.296;9.516;2022-07-11T00:42:52;5.20;;;2.42;;
47812;SDS011;34221;45.296;9.516;2022-07-11T00:43:07;5.95;;;2.65;;
47812;SDS011;34221;45.296;9.516;2022-07-11T00:44:08;4.47;;;2.55;;
47812;SDS011;34221;45.296;9.516;2022-07-11T00:44:23;4.78;;;2.60;;
47812;SDS011;34221;45.296;9.516;2022-07-11T00:44:38;6.05;;;2.70;;
47812;SDS011;34221;45.296;9.516;2022-07-11T00:44:53;6.35;;;2.50;;
47812;SDS011;34221;45.296;9.516;2022-07-11T00:45:08;6.28;;;2.50;;
47812;SDS011;34221;45.296;9.516;2022-07-11T00:45:23;6.03;;;2.70;;
47812;SDS011;34221;45.296;9.516;2022-07-11T00:45:38;5.57;;;2.60;;
47812;SDS011;34221;45.296;9.516;2022-07-11T00:45:53;5.38;;;2.50;;
47812;SDS011;34221;45.296;9.516;2022-07-11T00:46:08;6.85;;;2.53;;
47812;SDS011;34221;45.296;9.516;2022-07-11T00:46:25;6.85;;;2.88;;
47812;SDS011;34221;45.296;9.516;2022-07-11T00:46:41;5.28;;;2.83;;
47812;SDS011;34221;45.296;9.516;2022-07-11T00:46:57;5.78;;;2.60;;
47812;SDS011;34221;45.296;9.516;2022-07-11T00:47:12;6.88;;;2.55;;
47812;SDS011;34221;45.296;9.516;2022-07-11T00:47:27;8.35;;;2.95;;
47812;SDS011;34221;45.296;9.516;2022-07-11T00:47:42;7.40;;;3.00;;
47812;SDS011;34221;45.296;9.516;2022-07-11T00:47:57;5.85;;;2.65;;
47812;SDS011;34221;45.296;9.516;2022-07-11T00:48:12;6.47;;;2.58;;
47812;SDS011;34221;45.296;9.516;2022-07-11T00:48:27;6.32;;;2.72;;
47812;SDS011;34221;45.296;9.516;2022-07-11T00:48:42;6.10;;;2.67;;
47812;SDS011;34221;45.296;9.516;2022-07-11T00:48:58;5.68;;;2.63;;
47812;SDS011;34221;45.296;9.516;2022-07-11T00:49:13;5.80;;;2.63;;
47812;SDS011;34221;45.296;9.516;2022-07-11T00:49:28;6.57;;;2.53;;
47812;SDS011;34221;45.296;9.516;2022-07-11T00:49:44;6.82;;;2.80;;
47812;SDS011;34221;45.296;9.516;2022-07-11T00:49:59;9.38;;;3.03;;
47812;SDS011;34221;45.296;9.516;2022-07-11T00:50:14;7.88;;;2.83;;
47812;SDS011;34221;45.296;9.516;2022-07-11T00:50:30;6.82;;;2.92;;
47812;SDS011;34221;45.296;9.516;2022-07-11T00:50:45;7.28;;;2.72;;
47812;SDS011;34221;45.296;9.516;2022-07-11T00:51:00;5.78;;;2.50;;
47812;SDS011;34221;45.296;9.516;2022-07-11T00:51:17;6.10;;;2.70;;
47812;SDS011;34221;45.296;9.516;2022-07-11T00:51:36;5.38;;;2.75;;
47812;SDS011;34221;45.296;9.516;2022-07-11T00:51:51;6.72;;;2.72;;
47812;SDS011;34221;45.296;9.516;2022-07-11T00:52:06;7.72;;;3.13;;
47812;SDS011;34221;45.296;9.516;2022-07-11T00:52:23;5.50;;;3.03;;
47812;SDS011;34221;45.296;9.516;2022-07-11T00:52:38;7.70;;;2.90;;
47812;SDS011;34221;45.296;9.516;2022-07-11T00:52:55;8.18;;;3.05;;
47812;SDS011;34221;45.296;9.516;2022-07-11T00:53:11;6.75;;;2.80;;
47812;SDS011;34221;45.296;9.516;2022-07-11T00:53:26;7.53;;;2.70;;
47812;SDS011;34221;45.296;9.516;2022-07-11T00:53:41;10.02;;;2.97;;
47812;SDS011;34221;45.296;9.516;2022-07-11T00:53:57;8.10;;;2.90;;
47812;SDS011;34221;45.296;9.516;2022-07-11T00:54:13;5.88;;;2.47;;
47812;SDS011;34221;45.296;9.516;2022-07-11T00:54:30;6.60;;;2.47;;
47812;SDS011;34221;45.296;9.516;2022-07-11T00:54:45;5.70;;;2.63;;
47812;SDS011;34221;45.296;9.516;2022-07-11T00:55:02;5.45;;;2.88;;
47812;SDS011;34221;45.296;9.516;2022-07-11T00:55:20;5.40;;;3.00;;
47812;SDS011;34221;45.296;9.516;2022-07-11T00:55:36;7.00;;;3.00;;
47812;SDS011;34221;45.296;9.516;2022-07-11T00:55:51;7.15;;;2.58;;
47812;SDS011;34221;45.296;9.516;2022-07-11T00:56:08;6.85;;;2.60;;
47812;SDS011;34221;45.296;9.516;2022-07-11T00:56:24;6.13;;;2.58;;
47812;SDS011;34221;45.296;9.516;2022-07-11T00:56:41;6.07;;;2.50;;
47812;SDS011;34221;45.296;9.516;2022-07-11T00:56:56;6.25;;;2.72;;
47812;SDS011;34221;45.296;9.516;2022-07-11T00:57:12;5.90;;;2.75;;
47812;SDS011;34221;45.296;9.516;2022-07-11T00:57:28;8.57;;;2.80;;
47812;SDS011;34221;45.296;9.516;2022-07-11T00:57:43;8.65;;;2.90;;
47812;SDS011;34221;45.296;9.516;2022-07-11T00:57:58;6.25;;;2.75;;
47812;SDS011;34221;45.296;9.516;2022-07-11T00:58:13;7.50;;;3.03;;
47812;SDS011;34221;45.296;9.516;2022-07-11T00:58:28;6.10;;;2.85;;
47812;SDS011;34221;45.296;9.516;2022-07-11T00:58:44;4.70;;;2.55;;
47812;SDS011;34221;45.296;9.516;2022-07-11T00:59:01;4.22;;;2.60;;
47812;SDS011;34221;45.296;9.516;2022-07-11T00:59:16;4.07;;;2.63;;
47812;SDS011;34221;45.296;9.516;2022-07-11T00:59:33;4.60;;;2.63;;
47812;SDS011;34221;45.296;9.516;2022-07-11T00:59:48;4.30;;;2.50;;
47812;SDS011;34221;45.296;9.516;2022-07-11T01:00:03;4.80;;;2.50;;
47812;SDS011;34221;45.296;9.516;2022-07-11T01:00:19;7.22;;;2.60;;
47812;SDS011;34221;45.296;9.516;2022-07-11T01:00:34;8.65;;;2.90;;
47812;SDS011;34221;45.296;9.516;2022-07-11T01:00:49;7.15;;;2.97;;
47812;SDS011;34221;45.296;9.516;2022-07-11T01:01:05;6.88;;;2.90;;
47812;SDS011;34221;45.296;9.516;2022-07-11T01:01:20;7.20;;;3.03;;
47812;SDS011;34221;45.296;9.516;2022-07-11T01:01:37;7.25;;;3.10;;
47812;SDS011;34221;45.296;9.516;2022-07-11T01:01:52;7.32;;;2.97;;
47812;SDS011;34221;45.296;9.516;2022-07-11T01:02:07;8.25;;;2.95;;
47812;SDS011;34221;45.296;9.516;2022-07-11T01:02:22;8.00;;;3.00;;
47812;SDS011;34221;45.296;9.516;2022-07-11T01:02:37;5.57;;;2.60;;
47812;SDS011;34221;45.296;9.516;2022-07-11T01:02:52;4.68;;;2.40;;
47812;SDS011;34221;45.296;9.516;2022-07-11T01:03:07;6.57;;;2.42;;
47812;SDS011;34221;45.296;9.516;2022-07-11T01:03:22;6.78;;;2.50;;
47812;SDS011;34221;45.296;9.516;2022-07-11T01:03:37;4.63;;;2.50;;
47812;SDS011;34221;45.296;9.516;2022-07-11T01:03:54;7.88;;;2.80;;
47812;SDS011;34221;45.296;9.516;2022-07-11T01:04:09;8.77;;;2.90;;
47812;SDS011;34221;45.296;9.516;2022-07-11T01:04:24;6.35;;;2.63;;
47812;SDS011;34221;45.296;9.516;2022-07-11T01:04:39;5.63;;;2.55;;
47812;SDS011;34221;45.296;9.516;2022-07-11T01:04:54;4.65;;;2.58;;
47812;SDS011;34221;45.296;9.516;2022-07-11T01:05:10;6.97;;;2.90;;
47812;SDS011;34221;45.296;9.516;2022-07-11T01:05:25;6.90;;;2.70;;
47812;SDS011;34221;45.296;9.516;2022-07-11T01:05:41;4.50;;;2.28;;
47812;SDS011;34221;45.296;9.516;2022-07-11T01:05:56;4.75;;;2.65;;
47812;SDS011;34221;45.296;9.516;2022-07-11T01:06:11;4.95;;;2.95;;
47812;SDS011;34221;45.296;9.516;2022-07-11T01:06:26;6.32;;;2.75;;
47812;SDS011;34221;45.296;9.516;2022-07-11T01:06:41;6.25;;;2.53;;
47812;SDS011;34221;45.296;9.516;2022-07-11T01:06:56;6.03;;;2.80;;
47812;SDS011;34221;45.296;9.516;2022-07-11T01:07:11;6.22;;;3.10;;
47812;SDS011;34221;45.296;9.516;2022-07-11T01:07:26;5.20;;;3.00;;
47812;SDS011;34221;45.296;9.516;2022-07-11T01:07:41;5.28;;;2.90;;
47812;SDS011;34221;45.296;9.516;2022-07-11T01:07:56;6.00;;;3.08;;
47812;SDS011;34221;45.296;9.516;2022-07-11T01:08:11;6.18;;;3.17;;
47812;SDS011;34221;45.296;9.516;2022-07-11T01:08:26;5.78;;;3.08;;
47812;SDS011;34221;45.296;9.516;2022-07-11T01:08:45;5.85;;;2.97;;
47812;SDS011;34221;45.296;9.516;2022-07-11T01:09:00;5.73;;;2.70;;
47812;SDS011;34221;45.296;9.516;2022-07-11T01:09:16;4.95;;;2.70;;
47812;SDS011;34221;45.296;9.516;2022-07-11T01:09:31;6.32;;;2.80;;
47812;SDS011;34221;45.296;9.516;2022-07-11T01:09:46;7.10;;;2.88;;
47812;SDS011;34221;45.296;9.516;2022-07-11T01:10:01;5.53;;;2.90;;
47812;SDS011;34221;45.296;9.516;2022-07-11T01:10:17;4.97;;;2.72;;
47812;SDS011;34221;45.296;9.516;2022-07-11T01:10:32;4.70;;;2.53;;
47812;SDS011;34221;45.296;9.516;2022-07-11T01:10:48;4.68;;;2.67;;
47812;SDS011;34221;45.296;9.516;2022-07-11T01:11:03;6.65;;;3.05;;
47812;SDS011;34221;45.296;9.516;2022-07-11T01:11:24;6.30;;;2.70;;
47812;SDS011;34221;45.296;9.516;2022-07-11T01:11:41;7.55;;;2.65;;
47812;SDS011;34221;45.296;9.516;2022-07-11T01:11:56;8.70;;;2.75;;
47812;SDS011;34221;45.296;9.516;2022-07-11T01:12:12;5.97;;;2.70;;
47812;SDS011;34221;45.296;9.516;2022-07-11T01:12:27;4.22;;;2.53;;
47812;SDS011;34221;45.296;9.516;2022-07-11T01:12:42;5.60;;;2.75;;
47812;SDS011;34221;45.296;9.516;2022-07-11T01:12:57;7.22;;;2.95;;
47812;SDS011;34221;45.296;9.516;2022-07-11T01:13:13;7.07;;;2.72;;
47812;SDS011;34221;45.296;9.516;2022-07-11T01:13:28;9.48;;;2.72;;
47812;SDS011;34221;45.296;9.516;2022-07-11T01:13:43;9.55;;;2.75;;
47812;SDS011;34221;45.296;9.516;2022-07-11T01:13:59;6.78;;;2.67;;
47812;SDS011;34221;45.296;9.516;2022-07-11T01:14:14;5.82;;;2.58;;
47812;SDS011;34221;45.296;9.516;2022-07-11T01:14:29;4.97;;;2.67;;
47812;SDS011;34221;45.296;9.516;2022-07-11T01:14:50;5.80;;;3.03;;
47812;SDS011;34221;45.296;9.516;2022-07-11T01:15:13;5.05;;;2.80;;
47812;SDS011;34221;45.296;9.516;2022-07-11T01:15:28;5.15;;;2.70;;
47812;SDS011;34221;45.296;9.516;2022-07-11T01:15:43;4.93;;;2.80;;
47812;SDS011;34221;45.296;9.516;2022-07-11T01:16:17;4.18;;;2.60;;
47812;SDS011;34221;45.296;9.516;2022-07-11T01:16:35;6.20;;;2.65;;
47812;SDS011;34221;45.296;9.516;2022-07-11T01:16:50;5.75;;;2.90;;
47812;SDS011;34221;45.296;9.516;2022-07-11T01:17:05;6.07;;;3.28;;
47812;SDS011;34221;45.296;9.516;2022-07-11T01:17:20;6.30;;;3.65;;
47812;SDS011;34221;45.296;9.516;2022-07-11T01:17:35;6.72;;;3.53;;
47812;SDS011;34221;45.296;9.516;2022-07-11T01:17:50;7.93;;;3.10;;
47812;SDS011;34221;45.296;9.516;2022-07-11T01:18:06;9.20;;;3.20;;
47812;SDS011;34221;45.296;9.516;2022-07-11T01:18:21;7.40;;;2.95;;
47812;SDS011;34221;45.296;9.516;2022-07-11T01:18:36;6.68;;;2.92;;
47812;SDS011;34221;45.296;9.516;2022-07-11T01:18:52;6.50;;;3.10;;
47812;SDS011;34221;45.296;9.516;2022-07-11T01:19:08;5.78;;;2.97;;
47812;SDS011;34221;45.296;9.516;2022-07-11T01:19:23;5.18;;;2.70;;
47812;SDS011;34221;45.296;9.516;2022-07-11T01:19:38;4.43;;;2.45;;
47812;SDS011;34221;45.296;9.516;2022-07-11T01:19:53;5.55;;;2.72;;
47812;SDS011;34221;45.296;9.516;2022-07-11T01:20:08;6.50;;;3.10;;
47812;SDS011;34221;45.296;9.516;2022-07-11T01:20:24;6.55;;;3.20;;
47812;SDS011;34221;45.296;9.516;2022-07-11T01:20:39;7.60;;;2.90;;
47812;SDS011;34221;45.296;9.516;2022-07-11T01:20:54;7.43;;;2.80;;
47812;SDS011;34221;45.296;9.516;2022-07-11T01:21:11;7.72;;;3.00;;
47812;SDS011;34221;45.296;9.516;2022-07-11T01:21:37;6.82;;;2.90;;
47812;SDS011;34221;45.296;9.516;2022-07-11T01:21:54;7.22;;;3.13;;
47812;SDS011;34221;45.296;9.516;2022-07-11T01:22:18;8.35;;;3.05;;
47812;SDS011;34221;45.296;9.516;2022-07-11T01:22:44;8.80;;;3.20;;
47812;SDS011;34221;45.296;9.516;2022-07-11T01:23:05;5.10;;;2.63;;
47812;SDS011;34221;45.296;9.516;2022-07-11T01:23:21;5.78;;;2.72;;
47812;SDS011;34221;45.296;9.516;2022-07-11T01:23:36;7.07;;;2.70;;
47812;SDS011;34221;45.296;9.516;2022-07-11T01:23:55;7.38;;;2.45;;
47812;SDS011;34221;45.296;9.516;2022-07-11T01:24:12;4.57;;;2.30;;
47812;SDS011;34221;45.296;9.516;2022-07-11T01:24:27;6.07;;;2.65;;
47812;SDS011;34221;45.296;9.516;2022-07-11T01:24:43;7.70;;;3.00;;
47812;SDS011;34221;45.296;9.516;2022-07-11T01:24:59;7.20;;;2.78;;
47812;SDS011;34221;45.296;9.516;2022-07-11T01:25:14;5.93;;;2.80;;
47812;SDS011;34221;45.296;9.516;2022-07-11T01:25:44;8.95;;;3.00;;
47812;SDS011;34221;45.296;9.516;2022-07-11T01:25:59;6.32;;;2.88;;
47812;SDS011;34221;45.296;9.516;2022-07-11T01:26:15;8.05;;;2.97;;
47812;SDS011;34221;45.296;9.516;2022-07-11T01:26:31;7.75;;;3.25;;
47812;SDS011;34221;45.296;9.516;2022-07-11T01:26:50;5.93;;;3.13;;
47812;SDS011;34221;45.296;9.516;2022-07-11T01:27:05;6.32;;;3.05;;
47812;SDS011;34221;45.296;9.516;2022-07-11T01:27:22;6.38;;;2.97;;
47812;SDS011;34221;45.296;9.516;2022-07-11T01:27:37;7.63;;;3.47;;
47812;SDS011;34221;45.296;9.516;2022-07-11T01:27:53;7.10;;;3.65;;
47812;SDS011;34221;45.296;9.516;2022-07-11T01:28:09;5.35;;;3.13;;
47812;SDS011;34221;45.296;9.516;2022-07-11T01:28:24;7.00;;;3.15;;
47812;SDS011;34221;45.296;9.516;2022-07-11T01:28:39;8.93;;;3.30;;
47812;SDS011;34221;45.296;9.516;2022-07-11T01:28:54;8.15;;;3.03;;
47812;SDS011;34221;45.296;9.516;2022-07-11T01:29:12;6.70;;;2.88;;
47812;SDS011;34221;45.296;9.516;2022-07-11T01:29:28;8.73;;;2.97;;
47812;SDS011;34221;45.296;9.516;2022-07-11T01:29:43;8.48;;;3.15;;
47812;SDS011;34221;45.296;9.516;2022-07-11T01:29:58;6.63;;;3.17;;
47812;SDS011;34221;45.296;9.516;2022-07-11T01:30:13;6.17;;;2.73;;
47812;SDS011;34221;45.296;9.516;2022-07-11T01:30:28;5.93;;;2.50;;
47812;SDS011;34221;45.296;9.516;2022-07-11T01:30:45;5.70;;;2.80;;
47812;SDS011;34221;45.296;9.516;2022-07-11T01:31:00;5.28;;;2.90;;
47812;SDS011;34221;45.296;9.516;2022-07-11T01:31:16;6.93;;;2.90;;
47812;SDS011;34221;45.296;9.516;2022-07-11T01:31:31;7.38;;;3.10;;
47812;SDS011;34221;45.296;9.516;2022-07-11T01:31:46;6.93;;;2.95;;
47812;SDS011;34221;45.296;9.516;2022-07-11T01:32:01;8.50;;;3.13;;
47812;SDS011;34221;45.296;9.516;2022-07-11T01:32:19;7.90;;;3.25;;
47812;SDS011;34221;45.296;9.516;2022-07-11T01:32:35;6.65;;;2.88;;
47812;SDS011;34221;45.296;9.516;2022-07-11T01:32:50;6.78;;;2.78;;
47812;SDS011;34221;45.296;9.516;2022-07-11T01:33:06;6.13;;;2.97;;
47812;SDS011;34221;45.296;9.516;2022-07-11T01:33:21;5.47;;;2.80;;
47812;SDS011;34221;45.296;9.516;2022-07-11T01:33:36;6.45;;;2.88;;
47812;SDS011;34221;45.296;9.516;2022-07-11T01:33:51;7.05;;;3.10;;
47812;SDS011;34221;45.296;9.516;2022-07-11T01:34:06;6.05;;;2.97;;
47812;SDS011;34221;45.296;9.516;2022-07-11T01:34:20;6.47;;;2.80;;
47812;SDS011;34221;45.296;9.516;2022-07-11T01:34:35;6.63;;;2.70;;
47812;SDS011;34221;45.296;9.516;2022-07-11T01:34:50;6.78;;;2.80;;
47812;SDS011;34221;45.296;9.516;2022-07-11T01:35:05;6.80;;;2.75;;
47812;SDS011;34221;45.296;9.516;2022-07-11T01:35:21;4.80;;;2.53;;